Time;durP1;ratioP1;P1;durP2;ratioP2;P2;SDS_P1;SDS_P2;PMS_P1;PMS_P2;Temp;Humidity;BMP_temperature;BMP_pressure;BME280_temperature;BME280_humidity;BME280_pressure;Samples;Min_cycle;Max_cycle;Signal;HPM_P1;HPM_P2
2024/01/24 00:02:40;;;;;;;23.93;7.23;;;1.30;99.90;;;-0.83;100.00;101485.34;10213974;28;97742;-85
2024/01/24 00:07:44;;;;;;;18.47;6.33;;;1.30;99.90;;;-0.90;100.00;101491.72;10212621;28;96551;-84
2024/01/24 00:12:49;;;;;;;21.40;7.27;;;1.20;99.90;;;-0.91;100.00;101510.91;10212789;28;96517;-84
2024/01/24 00:17:52;;;;;;;20.13;6.60;;;1.20;99.90;;;-0.87;100.00;101495.06;10211370;28;96493;-85
2024/01/24 00:22:56;;;;;;;17.20;6.87;;;1.20;99.90;;;-0.79;100.00;101499.94;10232465;28;96604;-84
2024/01/24 00:28:00;;;;;;;18.03;6.90;;;1.20;99.90;;;-0.66;100.00;101508.13;10253218;28;96545;-84
2024/01/24 00:33:04;;;;;;;16.70;7.13;;;1.30;99.90;;;-0.58;100.00;101500.84;10211961;28;96558;-84
2024/01/24 00:38:08;;;;;;;14.10;6.53;;;1.40;99.90;;;-0.57;100.00;101492.09;10242843;28;96670;-83
2024/01/24 00:43:11;;;;;;;15.33;6.60;;;1.40;99.90;;;-0.58;100.00;101506.91;10215678;28;96496;-84
2024/01/24 00:48:15;;;;;;;14.50;6.00;;;1.40;99.90;;;-0.66;100.00;101511.59;10237898;28;96462;-84
2024/01/24 00:53:21;;;;;;;18.47;6.30;;;1.40;99.90;;;-0.78;100.00;101501.69;10198417;28;96644;-85
2024/01/24 00:58:24;;;;;;;16.17;5.07;;;1.30;99.90;;;-0.94;100.00;101506.66;10242302;28;96839;-84
2024/01/24 01:03:28;;;;;;;12.57;5.60;;;1.20;99.90;;;-1.04;100.00;101501.88;10209510;28;96569;-84
2024/01/24 01:08:32;;;;;;;14.07;5.67;;;1.00;99.90;;;-1.17;100.00;101493.69;10225045;28;96618;-84
2024/01/24 01:13:35;;;;;;;12.73;5.37;;;0.90;99.90;;;-1.31;100.00;101472.53;10225837;28;96499;-84
2024/01/24 01:18:38;;;;;;;9.87;4.60;;;0.80;99.90;;;-1.46;100.00;101464.41;10202006;28;96611;-84
2024/01/24 01:23:42;;;;;;;15.90;4.27;;;0.60;99.90;;;-1.61;100.00;101444.16;10210875;28;96734;-84
2024/01/24 01:28:45;;;;;;;10.33;4.70;;;0.50;99.90;;;-1.74;100.00;101449.00;10205331;28;96507;-84
2024/01/24 01:33:49;;;;;;;9.63;3.63;;;0.40;99.90;;;-1.89;100.00;101440.00;10217021;28;98412;-84
2024/01/24 01:38:52;;;;;;;12.27;4.77;;;0.30;99.90;;;-2.02;100.00;101412.72;10227630;28;96641;-84
2024/01/24 01:43:56;;;;;;;15.97;6.03;;;0.20;99.90;;;-2.06;100.00;101390.28;10207986;28;96611;-84
2024/01/24 01:49:00;;;;;;;14.80;6.20;;;0.10;99.90;;;-2.01;100.00;101401.38;10220610;28;96841;-85
2024/01/24 01:54:04;;;;;;;18.23;5.73;;;0.10;99.90;;;-1.92;100.00;101400.16;10212570;28;96899;-84
2024/01/24 01:59:09;;;;;;;14.60;6.20;;;0.20;99.90;;;-1.88;100.00;101404.38;10208458;28;97088;-84
2024/01/24 02:04:13;;;;;;;13.27;6.23;;;0.20;99.90;;;-1.90;100.00;101399.22;10222895;28;96671;-85
2024/01/24 02:09:16;;;;;;;14.63;5.57;;;0.20;99.90;;;-1.95;100.00;101389.88;10217282;28;96641;-85
2024/01/24 02:14:22;;;;;;;12.40;5.53;;;0.20;99.90;;;-2.02;100.00;101376.25;10205955;28;96717;-85
2024/01/24 02:19:26;;;;;;;20.83;8.13;;;0.10;99.90;;;-2.03;100.00;101378.91;10231092;28;96570;-85
2024/01/24 02:24:30;;;;;;;22.47;8.17;;;0.00;99.90;;;-2.04;100.00;101379.81;10241946;28;96646;-85
2024/01/24 02:29:35;;;;;;;35.97;10.47;;;0.00;99.90;;;-2.09;100.00;101372.19;10242928;28;96507;-85
2024/01/24 02:34:38;;;;;;;26.50;9.23;;;0.00;99.90;;;-2.22;100.00;101376.13;10212293;28;97004;-85
2024/01/24 02:39:43;;;;;;;15.83;6.00;;;-0.10;99.90;;;-2.32;100.00;101377.41;10227510;28;96849;-85
2024/01/24 02:44:46;;;;;;;15.90;6.63;;;-0.20;99.90;;;-2.39;100.00;101382.00;10253355;28;96559;-85
2024/01/24 02:49:50;;;;;;;16.23;6.53;;;-0.20;99.90;;;-2.50;100.00;101378.94;10245310;28;96621;-85
2024/01/24 02:54:54;;;;;;;15.73;6.10;;;-0.30;99.90;;;-2.56;100.00;101353.97;10244958;28;96662;-85
2024/01/24 02:59:57;;;;;;;18.10;6.83;;;-0.30;99.90;;;-2.48;100.00;101351.09;10206428;28;96509;-85
2024/01/24 03:05:01;;;;;;;17.53;5.97;;;-0.30;99.90;;;-2.42;100.00;101335.22;10230955;28;96739;-85
2024/01/24 03:10:06;;;;;;;13.40;5.27;;;-0.30;99.90;;;-2.38;100.00;101321.22;10216785;28;96677;-85
2024/01/24 03:15:10;;;;;;;13.40;6.43;;;-0.30;99.90;;;-2.45;100.00;101304.97;10216395;28;96921;-85
2024/01/24 03:20:14;;;;;;;12.37;5.80;;;-0.30;99.90;;;-2.50;100.00;101296.50;10218160;28;97470;-85
2024/01/24 03:25:18;;;;;;;20.17;5.90;;;-0.30;99.90;;;-2.57;100.00;101286.38;10215381;28;96554;-85
2024/01/24 03:30:22;;;;;;;17.33;6.10;;;-0.40;99.90;;;-2.62;100.00;101283.09;10214589;28;96603;-85
2024/01/24 03:35:26;;;;;;;30.67;9.77;;;-0.40;99.90;;;-2.66;100.00;101274.53;10214128;28;96534;-85
2024/01/24 03:40:30;;;;;;;39.87;12.30;;;-0.50;99.90;;;-2.69;100.00;101279.88;10211442;28;96594;-85
2024/01/24 03:45:35;;;;;;;25.37;9.20;;;-0.50;99.90;;;-2.75;100.00;101273.13;10198641;28;96952;-85
2024/01/24 03:50:39;;;;;;;20.47;7.10;;;-0.60;99.90;;;-2.74;100.00;101284.41;10225423;28;96668;-85
2024/01/24 03:55:42;;;;;;;21.70;8.20;;;-0.60;99.90;;;-2.73;100.00;101273.06;10207615;28;96473;-85
2024/01/24 04:00:46;;;;;;;27.17;9.80;;;-0.60;99.90;;;-2.66;100.00;101266.72;10226720;28;96450;-85
2024/01/24 04:05:49;;;;;;;20.90;7.60;;;-0.50;99.90;;;-2.51;100.00;101268.78;10209056;28;96639;-85
2024/01/24 04:10:53;;;;;;;17.17;7.23;;;-0.40;99.90;;;-2.37;100.00;101268.22;10208311;28;96633;-85
2024/01/24 04:15:56;;;;;;;16.10;7.33;;;-0.30;99.90;;;-2.16;100.00;101270.00;10221794;28;96685;-85
2024/01/24 04:21:01;;;;;;;14.40;5.73;;;-0.10;99.90;;;-2.02;100.00;101256.44;10210464;28;96675;-85
2024/01/24 04:26:05;;;;;;;21.10;6.87;;;0.00;99.90;;;-1.86;100.00;101255.78;10212220;28;96639;-85
2024/01/24 04:31:08;;;;;;;24.47;8.57;;;0.20;99.90;;;-1.74;100.00;101260.50;10201047;28;96936;-85
2024/01/24 04:36:12;;;;;;;22.47;9.53;;;0.30;99.90;;;-1.59;100.00;101270.28;10213479;28;96618;-85
2024/01/24 04:41:15;;;;;;;32.87;13.03;;;0.40;99.90;;;-1.49;100.00;101261.19;10231176;28;98082;-85
2024/01/24 04:46:19;;;;;;;34.07;12.70;;;0.50;99.90;;;-1.39;100.00;101269.44;10235715;28;97608;-85
2024/01/24 04:51:22;;;;;;;31.23;12.87;;;0.60;99.90;;;-1.29;100.00;101264.69;10224892;28;96674;-84
2024/01/24 04:56:27;;;;;;;25.27;11.30;;;0.70;99.90;;;-1.23;100.00;101248.78;10226560;28;96673;-85
2024/01/24 05:01:31;;;;;;;33.47;14.27;;;0.80;99.90;;;-1.21;100.00;101239.97;10226585;28;97857;-85
2024/01/24 05:06:36;;;;;;;29.80;12.47;;;0.90;99.90;;;-1.14;100.00;101235.31;10211862;28;96695;-84
2024/01/24 05:11:41;;;;;;;30.80;13.17;;;0.90;99.90;;;-1.08;100.00;101219.38;10237781;28;96586;-84
2024/01/24 05:16:45;;;;;;;31.00;12.47;;;0.90;99.90;;;-1.07;100.00;101226.31;10240250;28;96695;-85
2024/01/24 05:21:48;;;;;;;38.97;13.63;;;1.00;99.90;;;-1.03;100.00;101213.97;10210358;28;96593;-86
2024/01/24 05:26:51;;;;;;;25.47;12.30;;;1.00;99.90;;;-1.00;100.00;101216.47;10225821;28;96597;-86
2024/01/24 05:31:56;;;;;;;21.50;9.33;;;1.00;99.90;;;-1.04;100.00;101209.69;10210442;28;98140;-85
2024/01/24 05:37:00;;;;;;;28.37;9.73;;;1.00;99.90;;;-1.06;100.00;101227.16;10231545;28;96650;-86
2024/01/24 05:42:04;;;;;;;23.00;8.90;;;1.00;99.90;;;-1.08;100.00;101215.03;10225672;28;96586;-86
2024/01/24 05:47:08;;;;;;;40.23;13.43;;;1.00;99.90;;;-1.09;100.00;101194.22;10214915;28;96635;-86
2024/01/24 05:52:11;;;;;;;30.10;9.93;;;1.00;99.90;;;-1.06;100.00;101173.22;10210371;28;96497;-85
2024/01/24 05:57:15;;;;;;;33.17;12.03;;;1.00;99.90;;;-1.09;100.00;101183.78;10225287;28;96468;-84
2024/01/24 06:02:20;;;;;;;25.60;9.10;;;1.00;99.90;;;-1.08;100.00;101177.66;10210986;28;98238;-84
2024/01/24 06:07:23;;;;;;;23.77;9.97;;;0.90;99.90;;;-1.10;100.00;101193.38;10211832;28;96530;-85
2024/01/24 06:12:28;;;;;;;62.83;19.43;;;0.90;99.90;;;-1.10;100.00;101184.72;10207730;28;96464;-84
2024/01/24 06:17:31;;;;;;;27.93;10.90;;;0.90;99.90;;;-1.09;100.00;101182.03;10221223;28;97111;-84
2024/01/24 06:22:37;;;;;;;43.17;14.67;;;0.90;99.90;;;-1.10;100.00;101175.13;10212020;28;98043;-84
2024/01/24 06:27:42;;;;;;;24.30;10.67;;;0.90;99.90;;;-1.04;100.00;101142.69;10219809;28;96654;-84
2024/01/24 06:32:46;;;;;;;25.13;9.50;;;0.90;99.90;;;-0.82;100.00;101143.38;10226673;28;96490;-84
2024/01/24 06:37:51;;;;;;;38.80;16.73;;;1.00;99.90;;;-0.53;100.00;101129.88;10215707;28;96596;-84
2024/01/24 06:42:56;;;;;;;25.13;13.30;;;1.40;99.90;;;-0.46;100.00;101119.06;10231016;28;96907;-84
2024/01/24 06:48:00;;;;;;;28.27;13.40;;;1.50;99.90;;;-0.50;100.00;101108.81;10215283;28;96605;-84
2024/01/24 06:53:05;;;;;;;28.77;13.80;;;1.50;99.90;;;-0.56;100.00;101104.75;10216037;28;96450;-84
2024/01/24 06:58:09;;;;;;;26.53;12.07;;;1.50;99.90;;;-0.62;100.00;101103.28;10230516;28;96451;-84
2024/01/24 07:03:14;;;;;;;23.20;10.63;;;1.40;99.90;;;-0.68;100.00;101081.84;10228829;28;96629;-84
2024/01/24 07:08:18;;;;;;;33.90;13.53;;;1.30;99.90;;;-0.69;100.00;101091.44;10229296;28;96501;-84
2024/01/24 07:13:21;;;;;;;31.00;13.40;;;1.30;99.90;;;-0.66;100.00;101066.94;10215584;28;96390;-84
2024/01/24 07:18:25;;;;;;;29.73;12.60;;;1.30;99.90;;;-0.63;100.00;101074.66;10228996;28;97044;-83
2024/01/24 07:23:28;;;;;;;35.97;14.33;;;1.40;99.90;;;-0.55;100.00;101065.50;10231399;28;96519;-84
2024/01/24 07:28:34;;;;;;;31.33;13.80;;;1.40;99.90;;;-0.48;100.00;101073.91;10214469;28;96521;-84
2024/01/24 07:33:41;;;;;;;37.37;15.23;;;1.50;99.90;;;-0.41;100.00;101058.78;10211817;28;96763;-84
2024/01/24 07:38:45;;;;;;;28.23;14.67;;;1.60;99.90;;;-0.31;100.00;101049.53;10228737;28;96703;-84
2024/01/24 07:43:48;;;;;;;48.03;19.43;;;1.60;99.90;;;-0.17;100.00;101034.03;10212487;28;98044;-84
2024/01/24 07:48:53;;;;;;;42.40;21.73;;;1.80;99.90;;;-0.09;100.00;101038.84;10212992;28;96587;-84
2024/01/24 07:53:58;;;;;;;54.40;18.97;;;1.90;99.90;;;0.14;100.00;101035.88;10211075;28;96605;-84
2024/01/24 07:59:01;;;;;;;42.67;16.13;;;2.00;99.90;;;0.39;100.00;101021.50;10212874;28;96550;-84
2024/01/24 08:04:05;;;;;;;76.60;25.03;;;2.30;99.90;;;0.66;100.00;101032.22;10227169;28;96520;-84
2024/01/24 08:09:10;;;;;;;32.50;13.83;;;2.50;99.90;;;0.88;100.00;101026.66;10208842;28;98292;-84
2024/01/24 08:14:16;;;;;;;55.33;21.47;;;2.80;99.90;;;1.01;100.00;101022.41;10205743;28;98299;-84
2024/01/24 08:19:19;;;;;;;47.53;19.07;;;2.90;99.90;;;1.05;100.00;101005.59;10212936;28;96473;-84
2024/01/24 08:24:24;;;;;;;32.43;13.83;;;3.00;99.90;;;1.07;100.00;100990.66;10209914;28;96648;-84
2024/01/24 08:29:27;;;;;;;17.73;7.37;;;3.00;99.90;;;1.22;100.00;101008.09;10228773;28;96549;-84
2024/01/24 08:34:41;;;;;;;9.90;4.33;;;3.10;99.90;;;1.60;100.00;100995.38;10178324;28;96741;-84
2024/01/24 08:39:45;;;;;;;7.37;4.10;;;3.40;99.90;;;1.91;100.00;100976.97;10206597;28;96708;-84
2024/01/24 08:44:48;;;;;;;9.43;4.63;;;3.70;99.90;;;2.13;100.00;100979.97;10210130;28;96667;-84
2024/01/24 08:49:53;;;;;;;10.03;4.20;;;4.00;99.90;;;2.25;100.00;100981.84;10211789;28;96596;-84
2024/01/24 08:54:57;;;;;;;14.80;3.43;;;4.10;99.90;;;2.34;100.00;100969.91;10210477;28;96540;-84
2024/01/24 09:00:03;;;;;;;117.63;46.03;;;4.30;99.90;;;2.40;100.00;100959.06;10211864;28;96593;-85
2024/01/24 09:05:08;;;;;;;37.33;14.07;;;4.40;99.90;;;2.41;100.00;100961.59;10209695;28;96960;-84
2024/01/24 09:10:12;;;;;;;28.50;11.37;;;4.40;99.90;;;2.47;100.00;100955.09;10208420;28;96728;-84
2024/01/24 09:15:17;;;;;;;11.87;6.50;;;4.40;99.90;;;2.50;100.00;100959.31;10233802;28;96614;-84
2024/01/24 09:20:21;;;;;;;16.07;6.97;;;4.40;99.90;;;2.49;100.00;100937.47;10227145;28;96428;-84
2024/01/24 09:25:25;;;;;;;23.60;8.90;;;4.40;99.90;;;2.48;100.00;100929.72;10251593;28;96750;-84
2024/01/24 09:30:30;;;;;;;46.00;17.40;;;4.40;99.90;;;2.49;100.00;100919.13;10228090;28;97770;-84
2024/01/24 09:35:36;;;;;;;39.83;18.77;;;4.40;99.90;;;2.54;100.00;100916.19;10235790;28;96477;-84
2024/01/24 09:40:42;;;;;;;83.87;22.63;;;4.50;99.90;;;2.54;100.00;100888.19;10217589;28;96767;-84
2024/01/24 09:45:47;;;;;;;28.20;11.50;;;4.50;99.90;;;2.59;100.00;100874.75;10234557;28;96557;-84
2024/01/24 09:50:50;;;;;;;25.67;13.70;;;4.50;99.90;;;2.63;100.00;100869.19;10226690;28;96768;-84
2024/01/24 09:55:54;;;;;;;171.37;80.07;;;4.60;99.90;;;2.72;100.00;100849.41;10212085;28;97557;-84
2024/01/24 10:01:02;;;;;;;20.37;10.80;;;4.60;99.90;;;2.80;100.00;100839.22;10192367;28;96507;-84
2024/01/24 10:06:12;;;;;;;23.20;9.53;;;4.70;99.90;;;2.91;100.00;100807.84;10201186;28;96592;-84
2024/01/24 10:11:17;;;;;;;46.57;18.23;;;4.80;99.90;;;3.01;100.00;100797.56;10223619;28;98260;-84
2024/01/24 10:16:21;;;;;;;11.73;6.27;;;4.90;99.90;;;3.21;100.00;100793.56;10214159;28;97034;-85
2024/01/24 10:21:25;;;;;;;18.70;8.17;;;5.10;99.90;;;3.33;100.00;100765.59;10215252;28;97805;-85
2024/01/24 10:26:29;;;;;;;28.03;13.90;;;5.20;99.90;;;3.46;100.00;100750.66;10205615;28;96492;-85
2024/01/24 10:31:33;;;;;;;18.97;6.80;;;5.40;99.90;;;3.53;100.00;100762.38;10232185;28;96695;-85
2024/01/24 10:36:38;;;;;;;7.63;3.70;;;5.40;99.90;;;3.68;100.00;100755.22;10212227;28;96537;-85
2024/01/24 10:41:53;;;;;;;9.10;4.37;;;5.60;99.90;;;3.68;100.00;100745.53;10233359;28;97128;-84
2024/01/24 10:46:56;;;;;;;11.20;4.17;;;5.60;99.90;;;3.69;100.00;100746.38;10223147;28;96575;-84
2024/01/24 10:52:00;;;;;;;26.33;10.57;;;5.60;99.90;;;3.69;100.00;100710.41;10230238;28;96524;-84
2024/01/24 10:57:06;;;;;;;37.13;16.70;;;5.60;99.90;;;3.77;100.00;100691.44;10242770;28;98311;-84
2024/01/24 11:02:10;;;;;;;13.87;7.23;;;5.70;99.90;;;3.87;100.00;100666.16;10236588;28;96729;-85
2024/01/24 11:07:19;;;;;;;5.03;2.63;;;5.80;99.90;;;4.10;96.19;100639.97;10196945;28;98004;-85
2024/01/24 11:12:23;;;;;;;6.60;3.20;;;5.90;99.90;;;4.25;95.22;100642.25;10204177;28;99464;-84
2024/01/24 11:17:26;;;;;;;5.37;2.97;;;6.10;99.90;;;4.32;94.08;100629.50;10213805;28;96921;-85
2024/01/24 11:22:29;;;;;;;6.30;3.03;;;6.20;99.90;;;4.38;91.44;100626.41;10225472;28;96599;-84
2024/01/24 11:27:37;;;;;;;9.93;4.90;;;6.30;99.90;;;4.42;92.48;100612.03;10245018;28;96602;-85
2024/01/24 11:32:47;;;;;;;5.00;2.47;;;6.30;99.90;;;4.49;88.41;100567.66;10226524;28;96594;-85
2024/01/24 11:37:51;;;;;;;3.63;2.13;;;6.40;99.90;;;4.55;90.15;100548.75;10215420;28;96926;-85
2024/01/24 11:42:57;;;;;;;3.70;1.97;;;6.40;99.90;;;4.60;90.04;100587.88;10241282;28;96490;-85
2024/01/24 11:48:00;;;;;;;3.00;1.50;;;6.50;99.90;;;4.52;92.96;100584.06;10260484;28;96794;-85
2024/01/24 11:53:04;;;;;;;3.63;1.80;;;6.40;99.90;;;4.43;96.22;100595.28;10220698;28;97629;-85
2024/01/24 11:58:08;;;;;;;8.07;3.23;;;6.40;99.90;;;4.27;99.13;100606.16;10213497;28;96404;-85
2024/01/24 12:03:15;;;;;;;6.87;2.37;;;6.20;99.90;;;4.15;100.00;100601.00;10224999;28;96573;-85
2024/01/24 12:08:20;;;;;;;10.00;5.60;;;6.10;99.90;;;4.10;100.00;100587.34;10224973;28;97154;-84
2024/01/24 12:13:27;;;;;;;7.10;4.00;;;6.00;99.90;;;4.13;100.00;100590.56;10212207;28;97005;-84
2024/01/24 12:18:31;;;;;;;16.70;6.87;;;6.00;99.90;;;4.13;100.00;100581.84;10226347;28;96549;-85
2024/01/24 12:23:35;;;;;;;5.93;3.07;;;6.00;99.90;;;4.08;100.00;100587.47;10240562;28;96908;-85
2024/01/24 12:28:39;;;;;;;14.53;10.10;;;6.00;99.90;;;4.08;100.00;100584.00;10226102;28;97887;-85
2024/01/24 12:33:44;;;;;;;407.63;144.67;;;6.00;99.90;;;4.06;100.00;100559.59;10223083;28;96661;-85
2024/01/24 12:38:50;;;;;;;189.70;61.73;;;6.00;99.90;;;4.09;100.00;100564.66;10212482;28;96607;-85
2024/01/24 12:43:56;;;;;;;48.33;19.33;;;6.00;99.90;;;4.11;100.00;100541.69;10242576;28;96580;-85
2024/01/24 12:48:59;;;;;;;33.57;14.77;;;6.00;99.90;;;4.12;100.00;100511.78;10209746;28;96569;-85
2024/01/24 12:54:04;;;;;;;25.30;11.17;;;6.10;99.90;;;4.16;100.00;100493.03;10212208;28;96582;-85
2024/01/24 12:59:08;;;;;;;22.57;12.27;;;6.10;99.90;;;4.25;100.00;100499.34;10210555;28;96548;-85
2024/01/24 13:04:11;;;;;;;15.47;7.73;;;6.20;99.90;;;4.29;100.00;100504.25;10210519;28;96477;-84
2024/01/24 13:09:15;;;;;;;22.17;9.70;;;6.20;99.90;;;4.32;100.00;100491.81;10212010;28;96903;-83
2024/01/24 13:14:19;;;;;;;82.27;27.07;;;6.30;99.90;;;4.27;100.00;100494.84;10218931;28;96514;-82
2024/01/24 13:19:24;;;;;;;25.27;11.00;;;6.20;99.90;;;4.17;100.00;100491.25;10218347;28;96714;-83
2024/01/24 13:24:28;;;;;;;24.80;11.30;;;6.20;99.90;;;4.08;100.00;100497.19;10210046;28;98260;-83
2024/01/24 13:29:32;;;;;;;13.93;6.40;;;6.00;99.90;;;4.02;100.00;100496.75;10262932;28;96594;-83
2024/01/24 13:34:36;;;;;;;16.80;7.17;;;6.00;99.90;;;3.96;100.00;100470.94;10231819;28;98305;-84
2024/01/24 13:39:40;;;;;;;18.37;7.93;;;5.90;99.90;;;3.88;100.00;100483.81;10223018;28;96537;-84
2024/01/24 13:44:43;;;;;;;11.87;5.57;;;5.80;99.90;;;3.85;100.00;100484.06;10206594;28;97250;-83
2024/01/24 13:49:47;;;;;;;11.40;6.63;;;5.80;99.90;;;3.81;100.00;100453.69;10205470;28;96615;-83
2024/01/24 13:54:53;;;;;;;18.03;7.63;;;5.70;99.90;;;3.81;100.00;100416.06;10221545;28;96578;-83
2024/01/24 13:59:56;;;;;;;19.57;10.20;;;5.80;99.90;;;3.81;100.00;100418.69;10205698;28;96915;-84
2024/01/24 14:05:00;;;;;;;21.23;8.57;;;5.70;99.90;;;3.82;100.00;100423.81;10223969;28;96488;-83
2024/01/24 14:10:05;;;;;;;27.70;12.87;;;5.80;99.90;;;3.80;100.00;100417.00;10208931;28;96625;-84
2024/01/24 14:15:09;;;;;;;34.23;12.77;;;5.70;99.90;;;3.79;100.00;100403.03;10210498;28;96523;-84
2024/01/24 14:20:30;;;;;;;24.77;9.13;;;5.70;99.90;;;3.77;100.00;100381.28;10208097;28;96601;-84
2024/01/24 14:25:33;;;;;;;22.67;9.90;;;5.80;99.90;;;3.76;100.00;100409.34;10220067;28;96917;-84
2024/01/24 14:30:37;;;;;;;16.17;8.13;;;5.70;99.90;;;3.75;100.00;100393.72;10192844;28;96682;-84
2024/01/24 14:35:40;;;;;;;20.93;9.33;;;5.70;99.90;;;3.71;100.00;100397.53;10207281;28;96513;-84
2024/01/24 14:40:44;;;;;;;20.43;9.63;;;5.60;99.90;;;3.65;100.00;100380.44;10238048;28;97286;-83
2024/01/24 14:45:48;;;;;;;10.47;6.03;;;5.60;99.90;;;3.64;100.00;100377.94;10213932;28;96486;-84
2024/01/24 14:50:52;;;;;;;21.00;8.87;;;5.50;99.90;;;3.63;100.00;100360.50;10200269;28;96463;-84
2024/01/24 14:55:55;;;;;;;12.10;5.80;;;5.50;99.90;;;3.64;100.00;100373.50;10196958;28;96632;-84
2024/01/24 15:00:59;;;;;;;16.57;7.30;;;5.50;99.90;;;3.64;100.00;100335.88;10228772;28;98756;-84
2024/01/24 15:06:03;;;;;;;19.10;7.97;;;5.60;99.90;;;3.61;100.00;100354.53;10225911;28;98618;-84
2024/01/24 15:11:07;;;;;;;36.90;11.07;;;5.50;99.90;;;3.59;100.00;100348.53;10188597;28;96544;-84
2024/01/24 15:16:11;;;;;;;14.57;5.77;;;5.50;99.90;;;3.61;100.00;100333.50;10192826;28;97913;-84
2024/01/24 15:21:15;;;;;;;7.30;3.33;;;5.50;99.90;;;3.63;100.00;100321.06;10217553;28;96681;-84
2024/01/24 15:26:18;;;;;;;12.33;4.43;;;5.50;99.90;;;3.70;100.00;100322.25;10227267;28;96488;-84
2024/01/24 15:31:22;;;;;;;11.23;5.93;;;5.50;99.90;;;3.76;100.00;100311.25;10211808;28;98127;-84
2024/01/24 15:36:25;;;;;;;6.67;4.07;;;5.60;99.90;;;3.79;100.00;100316.28;10227113;28;96556;-84
2024/01/24 15:41:29;;;;;;;8.63;4.67;;;5.70;99.90;;;3.84;100.00;100310.66;10191834;28;96559;-84
2024/01/24 15:46:33;;;;;;;10.87;5.30;;;5.70;99.90;;;3.92;100.00;100311.72;10227783;28;96563;-84
2024/01/24 15:51:37;;;;;;;7.87;4.53;;;5.80;99.90;;;3.94;100.00;100315.06;10228615;28;96604;-85
2024/01/24 15:56:40;;;;;;;14.40;6.87;;;5.80;99.90;;;3.79;100.00;100318.91;10181581;28;96486;-85
2024/01/24 16:01:47;;;;;;;29.70;15.20;;;5.80;99.90;;;3.54;100.00;100303.38;10209198;28;97757;-85
2024/01/24 16:06:52;;;;;;;33.37;16.23;;;5.50;99.90;;;3.36;100.00;100330.16;10221684;28;96661;-85
2024/01/24 16:11:56;;;;;;;29.03;12.77;;;5.40;99.90;;;3.20;100.00;100334.91;10223849;28;96786;-85
2024/01/24 16:16:59;;;;;;;58.80;22.50;;;5.20;99.90;;;3.11;100.00;100309.34;10215687;28;97445;-84
2024/01/24 16:22:03;;;;;;;58.73;23.00;;;5.10;99.90;;;3.03;100.00;100291.56;10210465;28;96941;-85
2024/01/24 16:27:07;;;;;;;41.70;20.97;;;5.10;99.90;;;3.09;100.00;100311.25;10220645;28;96620;-85
2024/01/24 16:32:10;;;;;;;50.50;20.77;;;5.00;99.90;;;3.03;100.00;100332.72;10215137;28;96503;-85
2024/01/24 16:37:14;;;;;;;29.00;13.57;;;5.00;99.90;;;3.00;100.00;100314.56;10218714;28;96686;-85
2024/01/24 16:42:17;;;;;;;9.13;4.93;;;4.90;99.90;;;3.28;100.00;100315.94;10211943;28;96591;-85
2024/01/24 16:47:23;;;;;;;6.37;3.53;;;5.00;99.90;;;3.69;100.00;100326.69;10218087;28;96573;-86
2024/01/24 16:52:26;;;;;;;12.17;4.67;;;5.40;99.90;;;4.02;100.00;100320.56;10255428;28;96750;-85
2024/01/24 16:57:30;;;;;;;6.27;3.73;;;5.80;99.90;;;4.29;100.00;100332.44;10229099;28;97895;-85
2024/01/24 17:02:33;;;;;;;15.23;6.23;;;6.10;99.90;;;4.40;100.00;100358.72;10211204;28;96996;-85
2024/01/24 17:07:48;;;;;;;22.40;11.70;;;6.20;99.90;;;4.10;100.00;100382.22;10211884;28;96947;-85
2024/01/24 17:12:52;;;;;;;27.63;12.47;;;6.10;99.90;;;3.65;100.00;100376.97;10208883;28;96530;-85
2024/01/24 17:17:57;;;;;;;18.07;9.27;;;5.60;99.90;;;3.31;100.00;100350.69;10240829;28;96588;-85
2024/01/24 17:23:01;;;;;;;26.33;11.73;;;5.30;99.90;;;3.09;100.00;100345.41;10210287;28;96463;-85
2024/01/24 17:28:05;;;;;;;26.23;12.17;;;5.10;99.90;;;2.93;100.00;100382.44;10210432;28;96572;-85
2024/01/24 17:33:09;;;;;;;27.33;13.43;;;4.90;99.90;;;2.84;100.00;100375.28;10213659;28;98068;-85
2024/01/24 17:38:13;;;;;;;26.90;12.37;;;4.80;99.90;;;2.74;100.00;100374.28;10210083;28;96541;-85
2024/01/24 17:43:16;;;;;;;28.83;13.70;;;4.70;99.90;;;2.64;100.00;100377.59;10224607;28;96701;-85
2024/01/24 17:48:20;;;;;;;15.13;8.57;;;4.60;99.90;;;2.75;100.00;100386.44;10214207;28;98117;-85
2024/01/24 17:53:24;;;;;;;29.43;13.53;;;4.60;99.90;;;2.95;100.00;100393.69;10211454;28;96965;-84
2024/01/24 17:58:28;;;;;;;14.50;7.70;;;4.80;99.90;;;3.26;100.00;100386.97;10229007;28;96646;-85
2024/01/24 18:03:32;;;;;;;9.97;5.57;;;5.00;99.90;;;3.72;100.00;100367.69;10208047;28;96450;-85
2024/01/24 18:08:35;;;;;;;9.27;4.63;;;5.40;99.90;;;3.95;100.00;100369.31;10205755;28;96608;-85
2024/01/24 18:13:39;;;;;;;12.47;5.40;;;5.70;99.90;;;4.09;100.00;100362.16;10208625;28;98020;-85
2024/01/24 18:18:42;;;;;;;8.80;4.57;;;5.90;99.90;;;4.19;100.00;100357.81;10225880;28;96664;-84
2024/01/24 18:23:46;;;;;;;6.93;3.80;;;5.90;99.90;;;4.30;100.00;100353.34;10230392;28;96656;-83
2024/01/24 18:28:50;;;;;;;14.60;7.47;;;6.10;99.90;;;4.46;100.00;100346.84;10233705;28;96684;-83
2024/01/24 18:33:54;;;;;;;22.40;10.13;;;6.20;99.90;;;4.16;100.00;100369.41;10243838;28;97917;-83
2024/01/24 18:38:58;;;;;;;27.70;12.53;;;6.10;99.90;;;3.66;100.00;100386.56;10205680;28;98253;-83
2024/01/24 18:44:03;;;;;;;25.07;12.47;;;5.60;99.90;;;3.21;100.00;100375.97;10213587;28;96877;-83
2024/01/24 18:49:08;;;;;;;10.77;5.30;;;5.20;99.90;;;3.23;100.00;100371.44;10211430;28;97851;-83
2024/01/24 18:54:13;;;;;;;8.63;4.73;;;5.00;99.90;;;3.73;100.00;100354.41;10223016;28;98476;-83
2024/01/24 18:59:17;;;;;;;8.30;4.10;;;5.40;99.90;;;4.20;100.00;100338.44;10221764;28;96668;-83
2024/01/24 19:04:21;;;;;;;9.37;4.13;;;5.80;99.90;;;4.54;100.00;100340.00;10234720;28;96616;-83
2024/01/24 19:09:24;;;;;;;6.13;3.67;;;6.20;99.90;;;4.76;100.00;100314.53;10197606;28;97684;-83
2024/01/24 19:14:28;;;;;;;8.03;4.20;;;6.40;99.90;;;4.89;100.00;100307.28;10217452;28;96639;-83
2024/01/24 19:19:31;;;;;;;23.53;12.03;;;6.70;99.90;;;4.81;100.00;100312.38;10244623;28;96549;-83
2024/01/24 19:24:35;;;;;;;20.80;10.77;;;6.70;99.90;;;4.23;100.00;100327.66;10231534;28;96606;-83
2024/01/24 19:29:38;;;;;;;8.23;4.67;;;6.30;99.90;;;4.22;100.00;100324.19;10229330;28;96651;-84
2024/01/24 19:34:54;;;;;;;6.80;3.80;;;6.10;99.90;;;4.56;100.00;100348.63;10217369;28;97102;-84
2024/01/24 19:39:58;;;;;;;6.30;3.37;;;6.40;99.90;;;4.79;100.00;100345.88;10212535;28;96631;-84
2024/01/24 19:45:03;;;;;;;9.37;4.40;;;6.50;99.90;;;5.07;100.00;100363.69;10235087;28;96650;-84
2024/01/24 19:50:10;;;;;;;8.50;3.80;;;6.80;99.90;;;5.44;100.00;100354.47;10247082;28;98081;-84
2024/01/24 19:55:13;;;;;;;6.97;2.70;;;7.10;99.90;;;6.06;100.00;100370.16;10230516;28;96581;-84
2024/01/24 20:00:18;;;;;;;7.00;2.63;;;7.70;99.90;;;6.45;100.00;100388.72;10213067;28;98135;-84
2024/01/24 20:05:22;;;;;;;7.53;2.57;;;8.20;99.90;;;6.64;100.00;100396.66;10250964;28;96404;-84
2024/01/24 20:10:25;;;;;;;6.97;2.70;;;8.50;99.90;;;6.69;100.00;100394.44;10245925;28;96598;-84
2024/01/24 20:15:29;;;;;;;5.40;2.67;;;8.50;99.90;;;6.65;100.00;100400.94;10219309;28;97543;-84
2024/01/24 20:20:33;;;;;;;5.13;2.70;;;8.50;99.90;;;6.49;100.00;100384.84;10249240;28;96592;-84
2024/01/24 20:25:37;;;;;;;6.90;3.30;;;8.40;99.90;;;6.33;100.00;100387.16;10212848;28;96548;-85
2024/01/24 20:30:43;;;;;;;8.93;3.53;;;8.20;99.90;;;6.26;100.00;100383.41;10226194;28;97268;-84
2024/01/24 20:35:46;;;;;;;8.13;3.17;;;8.00;99.90;;;6.11;100.00;100375.84;10229708;28;97066;-84
2024/01/24 20:40:50;;;;;;;8.50;4.13;;;7.90;99.90;;;5.94;100.00;100352.78;10221295;28;96603;-84
2024/01/24 20:45:54;;;;;;;10.17;3.40;;;7.80;99.90;;;5.85;100.00;100358.81;10237309;28;97874;-84